Current | Forecast
Updated: 8:00 AM JST on October 21, 2017
Observed at Hiroshima Airport, Japan
Temperature 59°F
Humidity 77%
Dew Point 52°F
Wind NE at 8 mph
Pressure 29.98 in (Rising)
Conditions Mostly Cloudy
Visibility 6.2 miles
UV 1 out of 16
Clouds (FEW) : 1000 ft
Mostly Cloudy (BKN) : 4000 ft
Yesterday's Maximum 64°F
Yesterday's Minimum 57°F approx.
Yesterday's Heating Degree Days 4 approx.
Sunrise6:19 AM JST
Sunset5:28 PM JST
Moon Rise7:20 AM JST
Moon Set6:38 PM JST
Moon PhaseMoon Phase
New Moon
Raw METARMETAR RJOA 202300Z 05007KT 9999 FEW010 BKN040 15/11 Q1015


Monday
. High: 69° F.
Tuesday
. High: 75° F.
Wednesday
. High: 77° F.
Thursday
. High: 75° F.
Friday
. High: 73° F.
Saturday
. High: 77° F.
Sunday
. High: 78° F.
Monday
. High: 82° F.

Units: English | Metric

Find the Weather for any City, State or Zipcode, or Country:

U.S. State List | Severe Weather | Tropical Storms | Ski Conditions
United States | Canada | Central America | South America | Asia | Europe | Australia | Africa | Islands

Weather Underground

© Copyright 2017
The Weather Company, LLC